sensor_id;sensor_type;location;lat;lon;timestamp;pressure;altitude;pressure_sealevel;temperature;humidity
55301;BME280;58302;51.446;-2.000;2023-03-23T00:01:58;98483.38;;;6.82;100.00
55301;BME280;58302;51.446;-2.000;2023-03-23T00:04:24;98476.34;;;6.81;100.00
55301;BME280;58302;51.446;-2.000;2023-03-23T00:06:51;98481.97;;;6.84;100.00
55301;BME280;58302;51.446;-2.000;2023-03-23T00:09:17;98474.38;;;6.86;100.00
55301;BME280;58302;51.446;-2.000;2023-03-23T00:11:49;98466.09;;;6.83;100.00
55301;BME280;58302;51.446;-2.000;2023-03-23T00:14:16;98465.28;;;6.82;100.00
55301;BME280;58302;51.446;-2.000;2023-03-23T00:16:48;98473.66;;;6.81;100.00
55301;BME280;58302;51.446;-2.000;2023-03-23T00:19:16;98471.03;;;6.76;100.00
55301;BME280;58302;51.446;-2.000;2023-03-23T00:21:44;98481.91;;;6.71;100.00
55301;BME280;58302;51.446;-2.000;2023-03-23T00:24:15;98484.97;;;6.59;100.00
55301;BME280;58302;51.446;-2.000;2023-03-23T00:26:43;98503.75;;;6.45;100.00
55301;BME280;58302;51.446;-2.000;2023-03-23T00:29:19;98503.81;;;6.40;100.00
55301;BME280;58302;51.446;-2.000;2023-03-23T00:31:47;98510.59;;;6.38;100.00
55301;BME280;58302;51.446;-2.000;2023-03-23T00:34:17;98516.88;;;6.28;100.00
55301;BME280;58302;51.446;-2.000;2023-03-23T00:36:50;98511.84;;;6.21;100.00
55301;BME280;58302;51.446;-2.000;2023-03-23T00:39:17;98518.59;;;6.19;100.00
55301;BME280;58302;51.446;-2.000;2023-03-23T00:41:44;98505.16;;;6.14;100.00
55301;BME280;58302;51.446;-2.000;2023-03-23T00:44:11;98513.06;;;6.05;100.00
55301;BME280;58302;51.446;-2.000;2023-03-23T00:46:43;98517.44;;;5.96;100.00
55301;BME280;58302;51.446;-2.000;2023-03-23T00:49:19;98527.94;;;5.97;100.00
55301;BME280;58302;51.446;-2.000;2023-03-23T00:51:46;98523.38;;;5.88;100.00
55301;BME280;58302;51.446;-2.000;2023-03-23T00:54:12;98533.13;;;5.89;100.00
55301;BME280;58302;51.446;-2.000;2023-03-23T00:56:38;98538.75;;;5.87;100.00
55301;BME280;58302;51.446;-2.000;2023-03-23T00:59:07;98527.72;;;5.89;100.00
55301;BME280;58302;51.446;-2.000;2023-03-23T01:01:35;98540.66;;;5.87;100.00
55301;BME280;58302;51.446;-2.000;2023-03-23T01:04:01;98542.34;;;5.82;100.00
55301;BME280;58302;51.446;-2.000;2023-03-23T01:06:36;98549.53;;;5.87;100.00
55301;BME280;58302;51.446;-2.000;2023-03-23T01:09:07;98545.50;;;5.90;100.00
55301;BME280;58302;51.446;-2.000;2023-03-23T01:11:34;98541.47;;;5.92;100.00
55301;BME280;58302;51.446;-2.000;2023-03-23T01:14:00;98540.91;;;5.90;100.00
55301;BME280;58302;51.446;-2.000;2023-03-23T01:16:27;98535.81;;;5.89;100.00
55301;BME280;58302;51.446;-2.000;2023-03-23T01:18:53;98543.34;;;5.92;100.00
55301;BME280;58302;51.446;-2.000;2023-03-23T01:21:20;98542.50;;;5.96;100.00
55301;BME280;58302;51.446;-2.000;2023-03-23T01:23:46;98547.09;;;5.96;100.00
55301;BME280;58302;51.446;-2.000;2023-03-23T01:26:18;98547.38;;;5.94;100.00
55301;BME280;58302;51.446;-2.000;2023-03-23T01:28:44;98545.47;;;6.00;100.00
55301;BME280;58302;51.446;-2.000;2023-03-23T01:31:13;98556.50;;;5.98;100.00
55301;BME280;58302;51.446;-2.000;2023-03-23T01:33:40;98555.19;;;5.96;100.00
55301;BME280;58302;51.446;-2.000;2023-03-23T01:36:15;98548.19;;;5.90;100.00
55301;BME280;58302;51.446;-2.000;2023-03-23T01:38:43;98573.28;;;5.85;100.00
55301;BME280;58302;51.446;-2.000;2023-03-23T01:41:10;98573.06;;;5.76;100.00
55301;BME280;58302;51.446;-2.000;2023-03-23T01:43:52;98568.53;;;5.72;100.00
55301;BME280;58302;51.446;-2.000;2023-03-23T01:46:18;98575.03;;;5.66;100.00
55301;BME280;58302;51.446;-2.000;2023-03-23T01:48:45;98574.22;;;5.65;100.00
55301;BME280;58302;51.446;-2.000;2023-03-23T01:51:15;98572.38;;;5.61;100.00
55301;BME280;58302;51.446;-2.000;2023-03-23T01:53:51;98574.78;;;5.62;100.00
55301;BME280;58302;51.446;-2.000;2023-03-23T01:56:21;98572.13;;;5.57;100.00
55301;BME280;58302;51.446;-2.000;2023-03-23T01:58:51;98572.44;;;5.50;100.00
55301;BME280;58302;51.446;-2.000;2023-03-23T02:01:18;98569.78;;;5.45;100.00
55301;BME280;58302;51.446;-2.000;2023-03-23T02:03:47;98565.44;;;5.49;100.00
55301;BME280;58302;51.446;-2.000;2023-03-23T02:06:14;98563.47;;;5.60;100.00
55301;BME280;58302;51.446;-2.000;2023-03-23T02:08:41;98562.91;;;5.68;100.00
55301;BME280;58302;51.446;-2.000;2023-03-23T02:11:18;98569.38;;;5.67;100.00
55301;BME280;58302;51.446;-2.000;2023-03-23T02:13:44;98564.25;;;5.66;100.00
55301;BME280;58302;51.446;-2.000;2023-03-23T02:16:28;98556.69;;;5.73;100.00
55301;BME280;58302;51.446;-2.000;2023-03-23T02:19:07;98557.75;;;5.72;100.00
55301;BME280;58302;51.446;-2.000;2023-03-23T02:27:09;98567.00;;;5.61;100.00
55301;BME280;58302;51.446;-2.000;2023-03-23T02:29:56;98564.59;;;5.54;100.00
55301;BME280;58302;51.446;-2.000;2023-03-23T02:35:11;98559.81;;;5.46;100.00
55301;BME280;58302;51.446;-2.000;2023-03-23T02:37:46;98568.16;;;5.44;100.00
55301;BME280;58302;51.446;-2.000;2023-03-23T02:40:38;98566.50;;;5.48;100.00
55301;BME280;58302;51.446;-2.000;2023-03-23T02:43:08;98577.28;;;5.48;100.00
55301;BME280;58302;51.446;-2.000;2023-03-23T02:45:36;98574.84;;;5.52;100.00
55301;BME280;58302;51.446;-2.000;2023-03-23T02:48:04;98575.34;;;5.59;100.00
55301;BME280;58302;51.446;-2.000;2023-03-23T02:50:32;98568.38;;;5.53;100.00
55301;BME280;58302;51.446;-2.000;2023-03-23T02:52:59;98566.25;;;5.50;100.00
55301;BME280;58302;51.446;-2.000;2023-03-23T02:55:27;98581.34;;;5.46;100.00
55301;BME280;58302;51.446;-2.000;2023-03-23T02:57:54;98589.47;;;5.41;100.00
55301;BME280;58302;51.446;-2.000;2023-03-23T03:00:21;98594.09;;;5.30;100.00
55301;BME280;58302;51.446;-2.000;2023-03-23T03:02:50;98585.53;;;5.18;100.00
55301;BME280;58302;51.446;-2.000;2023-03-23T03:05:34;98597.41;;;5.07;100.00
55301;BME280;58302;51.446;-2.000;2023-03-23T03:11:10;98594.75;;;5.01;100.00
55301;BME280;58302;51.446;-2.000;2023-03-23T03:13:50;98593.38;;;4.99;100.00
55301;BME280;58302;51.446;-2.000;2023-03-23T03:18:52;98601.75;;;4.97;100.00
55301;BME280;58302;51.446;-2.000;2023-03-23T03:21:23;98596.91;;;4.94;100.00
55301;BME280;58302;51.446;-2.000;2023-03-23T03:23:53;98593.97;;;4.91;100.00
55301;BME280;58302;51.446;-2.000;2023-03-23T03:26:21;98592.63;;;4.88;100.00
55301;BME280;58302;51.446;-2.000;2023-03-23T03:28:53;98596.66;;;4.91;100.00
55301;BME280;58302;51.446;-2.000;2023-03-23T03:31:28;98587.47;;;5.02;100.00
55301;BME280;58302;51.446;-2.000;2023-03-23T03:33:55;98580.72;;;5.05;100.00
55301;BME280;58302;51.446;-2.000;2023-03-23T03:36:26;98582.56;;;5.19;100.00
55301;BME280;58302;51.446;-2.000;2023-03-23T03:38:53;98581.44;;;5.25;100.00
55301;BME280;58302;51.446;-2.000;2023-03-23T03:41:19;98578.47;;;5.27;100.00
55301;BME280;58302;51.446;-2.000;2023-03-23T03:43:45;98569.88;;;5.25;100.00
55301;BME280;58302;51.446;-2.000;2023-03-23T03:46:12;98573.91;;;5.27;100.00
55301;BME280;58302;51.446;-2.000;2023-03-23T03:48:37;98574.72;;;5.28;100.00
55301;BME280;58302;51.446;-2.000;2023-03-23T03:51:04;98579.31;;;5.27;100.00
55301;BME280;58302;51.446;-2.000;2023-03-23T03:53:30;98576.34;;;5.24;100.00
55301;BME280;58302;51.446;-2.000;2023-03-23T03:55:56;98573.16;;;5.17;100.00
55301;BME280;58302;51.446;-2.000;2023-03-23T03:58:26;98576.38;;;5.14;100.00
55301;BME280;58302;51.446;-2.000;2023-03-23T04:00:58;98572.63;;;5.05;100.00
55301;BME280;58302;51.446;-2.000;2023-03-23T04:03:26;98589.88;;;5.09;100.00
55301;BME280;58302;51.446;-2.000;2023-03-23T04:05:55;98589.34;;;5.01;100.00
55301;BME280;58302;51.446;-2.000;2023-03-23T04:08:22;98588.56;;;4.96;100.00
55301;BME280;58302;51.446;-2.000;2023-03-23T04:10:48;98584.00;;;4.96;100.00
55301;BME280;58302;51.446;-2.000;2023-03-23T04:13:15;98586.13;;;4.94;100.00
55301;BME280;58302;51.446;-2.000;2023-03-23T04:15:41;98592.06;;;5.01;100.00
55301;BME280;58302;51.446;-2.000;2023-03-23T04:18:07;98589.59;;;5.05;100.00
55301;BME280;58302;51.446;-2.000;2023-03-23T04:20:34;98591.16;;;5.16;100.00
55301;BME280;58302;51.446;-2.000;2023-03-23T04:23:00;98591.72;;;5.18;100.00
55301;BME280;58302;51.446;-2.000;2023-03-23T04:25:27;98588.75;;;5.15;100.00
55301;BME280;58302;51.446;-2.000;2023-03-23T04:27:54;98593.38;;;5.04;100.00
55301;BME280;58302;51.446;-2.000;2023-03-23T04:30:23;98602.28;;;4.99;100.00
55301;BME280;58302;51.446;-2.000;2023-03-23T04:32:51;98596.38;;;4.97;100.00
55301;BME280;58302;51.446;-2.000;2023-03-23T04:35:19;98599.34;;;4.91;100.00
55301;BME280;58302;51.446;-2.000;2023-03-23T04:37:46;98600.97;;;4.87;100.00
55301;BME280;58302;51.446;-2.000;2023-03-23T04:40:13;98605.56;;;4.86;100.00
55301;BME280;58302;51.446;-2.000;2023-03-23T04:42:41;98611.47;;;4.83;100.00
55301;BME280;58302;51.446;-2.000;2023-03-23T04:45:13;98608.25;;;4.76;100.00
55301;BME280;58302;51.446;-2.000;2023-03-23T04:47:41;98609.88;;;4.72;100.00
55301;BME280;58302;51.446;-2.000;2023-03-23T04:50:09;98605.06;;;4.69;100.00
55301;BME280;58302;51.446;-2.000;2023-03-23T04:52:36;98603.69;;;4.66;100.00
55301;BME280;58302;51.446;-2.000;2023-03-23T04:55:08;98596.69;;;4.75;100.00
55301;BME280;58302;51.446;-2.000;2023-03-23T04:57:35;98594.00;;;4.75;100.00
55301;BME280;58302;51.446;-2.000;2023-03-23T05:00:02;98595.31;;;4.83;100.00
55301;BME280;58302;51.446;-2.000;2023-03-23T05:02:38;98583.50;;;4.84;100.00
55301;BME280;58302;51.446;-2.000;2023-03-23T05:05:06;98589.91;;;4.88;100.00
55301;BME280;58302;51.446;-2.000;2023-03-23T05:07:32;98591.28;;;4.91;100.00
55301;BME280;58302;51.446;-2.000;2023-03-23T05:09:58;98588.03;;;4.89;100.00
55301;BME280;58302;51.446;-2.000;2023-03-23T05:12:24;98578.63;;;4.91;100.00
55301;BME280;58302;51.446;-2.000;2023-03-23T05:14:50;98576.19;;;5.00;100.00
55301;BME280;58302;51.446;-2.000;2023-03-23T05:17:16;98568.06;;;5.05;100.00
55301;BME280;58302;51.446;-2.000;2023-03-23T05:19:44;98564.53;;;5.15;100.00
55301;BME280;58302;51.446;-2.000;2023-03-23T05:22:14;98564.22;;;5.21;100.00
55301;BME280;58302;51.446;-2.000;2023-03-23T05:24:40;98552.38;;;5.27;100.00
55301;BME280;58302;51.446;-2.000;2023-03-23T05:27:10;98547.75;;;5.33;100.00
55301;BME280;58302;51.446;-2.000;2023-03-23T05:29:37;98546.94;;;5.33;100.00
55301;BME280;58302;51.446;-2.000;2023-03-23T05:32:07;98555.59;;;5.29;100.00
55301;BME280;58302;51.446;-2.000;2023-03-23T05:34:36;98554.81;;;5.24;100.00
55301;BME280;58302;51.446;-2.000;2023-03-23T05:37:03;98544.81;;;5.29;100.00
55301;BME280;58302;51.446;-2.000;2023-03-23T05:39:30;98555.78;;;5.38;100.00
55301;BME280;58302;51.446;-2.000;2023-03-23T05:41:57;98557.09;;;5.46;100.00
55301;BME280;58302;51.446;-2.000;2023-03-23T05:44:23;98541.22;;;5.44;100.00
55301;BME280;58302;51.446;-2.000;2023-03-23T05:46:49;98546.59;;;5.49;100.00
55301;BME280;58302;51.446;-2.000;2023-03-23T05:49:16;98555.72;;;5.48;100.00
55301;BME280;58302;51.446;-2.000;2023-03-23T05:51:43;98547.94;;;5.47;100.00
55301;BME280;58302;51.446;-2.000;2023-03-23T05:54:10;98540.66;;;5.47;100.00
55301;BME280;58302;51.446;-2.000;2023-03-23T05:56:36;98559.25;;;5.44;100.00
55301;BME280;58302;51.446;-2.000;2023-03-23T05:59:02;98546.53;;;5.54;100.00
55301;BME280;58302;51.446;-2.000;2023-03-23T06:01:29;98547.00;;;5.72;100.00
55301;BME280;58302;51.446;-2.000;2023-03-23T06:03:55;98537.81;;;5.73;100.00
55301;BME280;58302;51.446;-2.000;2023-03-23T06:06:25;98547.00;;;5.72;100.00
55301;BME280;58302;51.446;-2.000;2023-03-23T06:08:51;98553.38;;;5.81;100.00
55301;BME280;58302;51.446;-2.000;2023-03-23T06:11:17;98554.13;;;5.87;100.00
55301;BME280;58302;51.446;-2.000;2023-03-23T06:13:44;98542.53;;;5.91;100.00
55301;BME280;58302;51.446;-2.000;2023-03-23T06:16:10;98548.75;;;5.92;100.00
55301;BME280;58302;51.446;-2.000;2023-03-23T06:18:36;98537.91;;;5.97;100.00
55301;BME280;58302;51.446;-2.000;2023-03-23T06:21:06;98535.91;;;6.13;100.00
55301;BME280;58302;51.446;-2.000;2023-03-23T06:23:32;98540.16;;;6.19;100.00
55301;BME280;58302;51.446;-2.000;2023-03-23T06:26:01;98532.81;;;6.24;100.00
55301;BME280;58302;51.446;-2.000;2023-03-23T06:28:28;98528.72;;;6.32;100.00
55301;BME280;58302;51.446;-2.000;2023-03-23T06:30:54;98537.56;;;6.38;100.00
55301;BME280;58302;51.446;-2.000;2023-03-23T06:33:19;98522.66;;;6.45;100.00
55301;BME280;58302;51.446;-2.000;2023-03-23T06:35:45;98535.28;;;6.50;100.00
55301;BME280;58302;51.446;-2.000;2023-03-23T06:38:11;98541.94;;;6.57;100.00
55301;BME280;58302;51.446;-2.000;2023-03-23T06:40:38;98526.22;;;6.65;100.00
55301;BME280;58302;51.446;-2.000;2023-03-23T06:43:04;98531.00;;;6.73;100.00
55301;BME280;58302;51.446;-2.000;2023-03-23T06:45:30;98534.09;;;6.85;100.00
55301;BME280;58302;51.446;-2.000;2023-03-23T06:47:57;98538.13;;;6.88;100.00
55301;BME280;58302;51.446;-2.000;2023-03-23T06:50:23;98541.22;;;7.00;100.00
55301;BME280;58302;51.446;-2.000;2023-03-23T06:52:50;98535.91;;;7.13;100.00
55301;BME280;58302;51.446;-2.000;2023-03-23T06:55:17;98527.09;;;7.27;100.00
55301;BME280;58302;51.446;-2.000;2023-03-23T06:57:43;98527.97;;;7.41;100.00
55301;BME280;58302;51.446;-2.000;2023-03-23T07:00:11;98522.88;;;7.58;100.00
55301;BME280;58302;51.446;-2.000;2023-03-23T07:02:42;98518.25;;;7.78;100.00
55301;BME280;58302;51.446;-2.000;2023-03-23T07:05:11;98513.00;;;8.00;100.00
55301;BME280;58302;51.446;-2.000;2023-03-23T07:07:37;98513.19;;;8.23;100.00
55301;BME280;58302;51.446;-2.000;2023-03-23T07:10:05;98515.56;;;8.43;100.00
55301;BME280;58302;51.446;-2.000;2023-03-23T07:12:31;98519.50;;;8.64;100.00
55301;BME280;58302;51.446;-2.000;2023-03-23T07:14:58;98521.22;;;8.74;100.00
55301;BME280;58302;51.446;-2.000;2023-03-23T07:17:25;98533.16;;;8.87;100.00
55301;BME280;58302;51.446;-2.000;2023-03-23T07:19:50;98532.16;;;8.96;100.00
55301;BME280;58302;51.446;-2.000;2023-03-23T07:22:17;98533.53;;;9.08;100.00
55301;BME280;58302;51.446;-2.000;2023-03-23T07:24:43;98543.97;;;9.14;100.00
55301;BME280;58302;51.446;-2.000;2023-03-23T07:27:09;98553.50;;;9.26;100.00
55301;BME280;58302;51.446;-2.000;2023-03-23T07:29:36;98570.66;;;9.35;100.00
55301;BME280;58302;51.446;-2.000;2023-03-23T07:32:05;98564.31;;;9.39;100.00
55301;BME280;58302;51.446;-2.000;2023-03-23T07:34:32;98575.75;;;9.50;100.00
55301;BME280;58302;51.446;-2.000;2023-03-23T07:36:58;98589.38;;;9.72;100.00
55301;BME280;58302;51.446;-2.000;2023-03-23T07:39:24;98582.09;;;9.82;100.00
55301;BME280;58302;51.446;-2.000;2023-03-23T07:41:51;98593.47;;;9.84;100.00
55301;BME280;58302;51.446;-2.000;2023-03-23T07:44:17;98608.81;;;9.88;100.00
55301;BME280;58302;51.446;-2.000;2023-03-23T07:46:43;98607.53;;;10.08;100.00
55301;BME280;58302;51.446;-2.000;2023-03-23T07:49:09;98603.78;;;10.18;100.00
55301;BME280;58302;51.446;-2.000;2023-03-23T07:51:36;98608.03;;;10.24;100.00
55301;BME280;58302;51.446;-2.000;2023-03-23T07:54:04;98626.50;;;10.22;100.00
55301;BME280;58302;51.446;-2.000;2023-03-23T07:56:34;98634.66;;;10.22;100.00
55301;BME280;58302;51.446;-2.000;2023-03-23T07:59:01;98628.94;;;10.46;100.00
55301;BME280;58302;51.446;-2.000;2023-03-23T08:01:28;98630.06;;;10.45;100.00
55301;BME280;58302;51.446;-2.000;2023-03-23T08:03:54;98634.56;;;10.49;100.00
55301;BME280;58302;51.446;-2.000;2023-03-23T08:06:26;98651.03;;;10.53;100.00
55301;BME280;58302;51.446;-2.000;2023-03-23T08:08:53;98659.94;;;10.67;100.00
55301;BME280;58302;51.446;-2.000;2023-03-23T08:11:20;98649.47;;;10.83;100.00
55301;BME280;58302;51.446;-2.000;2023-03-23T08:13:46;98657.69;;;10.47;100.00
55301;BME280;58302;51.446;-2.000;2023-03-23T08:16:12;98651.84;;;10.53;100.00
55301;BME280;58302;51.446;-2.000;2023-03-23T08:18:39;98651.97;;;11.02;100.00
55301;BME280;58302;51.446;-2.000;2023-03-23T08:21:07;98665.09;;;11.00;100.00
55301;BME280;58302;51.446;-2.000;2023-03-23T08:23:36;98665.03;;;10.69;100.00
55301;BME280;58302;51.446;-2.000;2023-03-23T08:26:06;98674.66;;;10.30;100.00
55301;BME280;58302;51.446;-2.000;2023-03-23T08:28:36;98660.22;;;10.07;100.00
55301;BME280;58302;51.446;-2.000;2023-03-23T08:31:08;98648.63;;;10.15;100.00
55301;BME280;58302;51.446;-2.000;2023-03-23T08:33:34;98653.59;;;10.49;100.00
55301;BME280;58302;51.446;-2.000;2023-03-23T08:36:00;98660.06;;;10.62;100.00
55301;BME280;58302;51.446;-2.000;2023-03-23T08:38:27;98661.59;;;10.77;100.00
55301;BME280;58302;51.446;-2.000;2023-03-23T08:41:01;98657.84;;;10.95;100.00
55301;BME280;58302;51.446;-2.000;2023-03-23T08:43:28;98648.34;;;11.15;100.00
55301;BME280;58302;51.446;-2.000;2023-03-23T08:45:54;98659.75;;;11.26;100.00
55301;BME280;58302;51.446;-2.000;2023-03-23T08:48:21;98656.34;;;11.12;100.00
55301;BME280;58302;51.446;-2.000;2023-03-23T08:50:49;98668.41;;;10.97;100.00
55301;BME280;58302;51.446;-2.000;2023-03-23T08:53:18;98665.09;;;11.08;100.00
55301;BME280;58302;51.446;-2.000;2023-03-23T08:55:47;98643.59;;;11.21;100.00
55301;BME280;58302;51.446;-2.000;2023-03-23T08:58:14;98661.84;;;11.29;100.00
55301;BME280;58302;51.446;-2.000;2023-03-23T09:00:41;98657.00;;;11.17;100.00
55301;BME280;58302;51.446;-2.000;2023-03-23T09:03:07;98671.66;;;11.47;100.00
55301;BME280;58302;51.446;-2.000;2023-03-23T09:05:33;98656.38;;;11.60;100.00
55301;BME280;58302;51.446;-2.000;2023-03-23T09:07:59;98655.59;;;11.77;100.00
55301;BME280;58302;51.446;-2.000;2023-03-23T09:10:28;98652.72;;;11.73;100.00
55301;BME280;58302;51.446;-2.000;2023-03-23T09:12:56;98654.91;;;11.54;100.00
55301;BME280;58302;51.446;-2.000;2023-03-23T09:15:22;98646.75;;;11.54;100.00
55301;BME280;58302;51.446;-2.000;2023-03-23T09:17:51;98638.69;;;11.97;100.00
55301;BME280;58302;51.446;-2.000;2023-03-23T09:20:20;98648.31;;;12.55;100.00
55301;BME280;58302;51.446;-2.000;2023-03-23T09:22:49;98645.38;;;12.86;100.00
55301;BME280;58302;51.446;-2.000;2023-03-23T09:25:17;98638.38;;;12.59;100.00
55301;BME280;58302;51.446;-2.000;2023-03-23T09:27:49;98646.06;;;12.49;100.00
55301;BME280;58302;51.446;-2.000;2023-03-23T09:30:18;98659.66;;;12.66;100.00
55301;BME280;58302;51.446;-2.000;2023-03-23T09:32:45;98649.88;;;12.82;100.00
55301;BME280;58302;51.446;-2.000;2023-03-23T09:35:11;98659.66;;;12.66;100.00
55301;BME280;58302;51.446;-2.000;2023-03-23T09:37:39;98647.13;;;12.82;100.00
55301;BME280;58302;51.446;-2.000;2023-03-23T09:40:09;98672.13;;;12.84;100.00
55301;BME280;58302;51.446;-2.000;2023-03-23T09:47:38;98657.31;;;13.58;100.00
55301;BME280;58302;51.446;-2.000;2023-03-23T09:50:15;98661.31;;;13.90;100.00
55301;BME280;58302;51.446;-2.000;2023-03-23T09:52:54;98656.13;;;13.97;100.00
55301;BME280;58302;51.446;-2.000;2023-03-23T09:55:22;98676.00;;;14.48;100.00
55301;BME280;58302;51.446;-2.000;2023-03-23T10:00:34;98657.78;;;14.11;100.00
55301;BME280;58302;51.446;-2.000;2023-03-23T10:03:14;98657.25;;;14.38;100.00
55301;BME280;58302;51.446;-2.000;2023-03-23T10:05:46;98664.09;;;14.53;100.00
55301;BME280;58302;51.446;-2.000;2023-03-23T10:08:19;98659.13;;;15.00;100.00
55301;BME280;58302;51.446;-2.000;2023-03-23T10:11:16;98682.31;;;14.82;100.00
55301;BME280;58302;51.446;-2.000;2023-03-23T10:22:40;98679.25;;;15.41;100.00
55301;BME280;58302;51.446;-2.000;2023-03-23T10:27:46;98696.53;;;15.78;100.00
55301;BME280;58302;51.446;-2.000;2023-03-23T10:30:19;98686.88;;;15.36;100.00
55301;BME280;58302;51.446;-2.000;2023-03-23T10:35:56;98696.44;;;15.17;100.00
55301;BME280;58302;51.446;-2.000;2023-03-23T10:38:38;98704.81;;;15.45;100.00
55301;BME280;58302;51.446;-2.000;2023-03-23T10:41:16;98700.94;;;15.46;100.00
55301;BME280;58302;51.446;-2.000;2023-03-23T10:43:44;98687.13;;;15.43;100.00
55301;BME280;58302;51.446;-2.000;2023-03-23T10:49:15;98694.28;;;15.23;100.00
55301;BME280;58302;51.446;-2.000;2023-03-23T10:51:50;98688.28;;;14.96;100.00
55301;BME280;58302;51.446;-2.000;2023-03-23T10:54:27;98711.88;;;15.34;100.00
55301;BME280;58302;51.446;-2.000;2023-03-23T10:56:53;98714.44;;;15.06;100.00
55301;BME280;58302;51.446;-2.000;2023-03-23T10:59:30;98705.63;;;14.67;100.00
55301;BME280;58302;51.446;-2.000;2023-03-23T11:02:03;98707.78;;;14.32;100.00
55301;BME280;58302;51.446;-2.000;2023-03-23T11:04:45;98700.28;;;14.29;100.00
55301;BME280;58302;51.446;-2.000;2023-03-23T11:07:25;98707.06;;;14.23;100.00
55301;BME280;58302;51.446;-2.000;2023-03-23T11:09:55;98714.28;;;14.48;100.00
55301;BME280;58302;51.446;-2.000;2023-03-23T11:12:21;98723.13;;;14.45;100.00
55301;BME280;58302;51.446;-2.000;2023-03-23T11:14:49;98713.91;;;14.08;100.00
55301;BME280;58302;51.446;-2.000;2023-03-23T11:17:26;98714.50;;;13.84;100.00
55301;BME280;58302;51.446;-2.000;2023-03-23T11:19:57;98688.91;;;13.68;100.00
55301;BME280;58302;51.446;-2.000;2023-03-23T11:22:26;98714.31;;;13.60;100.00
55301;BME280;58302;51.446;-2.000;2023-03-23T11:24:59;98707.78;;;13.43;100.00
55301;BME280;58302;51.446;-2.000;2023-03-23T11:27:27;98699.41;;;12.84;100.00
55301;BME280;58302;51.446;-2.000;2023-03-23T11:30:01;98697.50;;;12.42;100.00
55301;BME280;58302;51.446;-2.000;2023-03-23T11:32:34;98691.25;;;12.50;100.00
55301;BME280;58302;51.446;-2.000;2023-03-23T11:35:07;98668.63;;;12.84;100.00
55301;BME280;58302;51.446;-2.000;2023-03-23T11:37:47;98663.75;;;13.24;100.00
55301;BME280;58302;51.446;-2.000;2023-03-23T11:40:17;98669.56;;;13.52;100.00
55301;BME280;58302;51.446;-2.000;2023-03-23T11:50:33;98661.13;;;14.79;100.00
55301;BME280;58302;51.446;-2.000;2023-03-23T11:53:32;98654.25;;;15.18;100.00
55301;BME280;58302;51.446;-2.000;2023-03-23T11:58:29;98652.09;;;15.48;100.00
55301;BME280;58302;51.446;-2.000;2023-03-23T12:09:22;98677.25;;;14.09;100.00
55301;BME280;58302;51.446;-2.000;2023-03-23T12:12:03;98664.38;;;14.10;100.00
55301;BME280;58302;51.446;-2.000;2023-03-23T12:14:44;98656.44;;;13.75;100.00
55301;BME280;58302;51.446;-2.000;2023-03-23T12:17:39;98667.88;;;13.68;100.00
55301;BME280;58302;51.446;-2.000;2023-03-23T12:33:54;98661.44;;;13.94;100.00
55301;BME280;58302;51.446;-2.000;2023-03-23T12:42:08;98652.25;;;13.98;100.00
55301;BME280;58302;51.446;-2.000;2023-03-23T12:44:46;98654.47;;;14.05;100.00
55301;BME280;58302;51.446;-2.000;2023-03-23T12:49:57;98654.22;;;14.19;100.00
55301;BME280;58302;51.446;-2.000;2023-03-23T12:52:49;98655.25;;;14.06;100.00
55301;BME280;58302;51.446;-2.000;2023-03-23T12:55:30;98673.88;;;14.12;100.00
55301;BME280;58302;51.446;-2.000;2023-03-23T12:58:19;98667.13;;;14.10;100.00
55301;BME280;58302;51.446;-2.000;2023-03-23T13:00:59;98646.84;;;13.90;100.00
55301;BME280;58302;51.446;-2.000;2023-03-23T13:03:33;98645.66;;;14.00;100.00
55301;BME280;58302;51.446;-2.000;2023-03-23T13:06:13;98632.69;;;13.96;100.00
55301;BME280;58302;51.446;-2.000;2023-03-23T13:11:34;98630.97;;;14.13;100.00
55301;BME280;58302;51.446;-2.000;2023-03-23T13:22:14;98607.06;;;14.64;100.00
55301;BME280;58302;51.446;-2.000;2023-03-23T13:24:58;98606.41;;;14.79;100.00
55301;BME280;58302;51.446;-2.000;2023-03-23T13:27:28;98601.59;;;14.64;100.00
55301;BME280;58302;51.446;-2.000;2023-03-23T13:29:56;98595.41;;;14.55;100.00
55301;BME280;58302;51.446;-2.000;2023-03-23T13:32:35;98599.66;;;14.43;100.00
55301;BME280;58302;51.446;-2.000;2023-03-23T13:35:12;98604.72;;;14.33;100.00
55301;BME280;58302;51.446;-2.000;2023-03-23T13:37:44;98610.69;;;13.93;100.00
55301;BME280;58302;51.446;-2.000;2023-03-23T13:40:26;98604.97;;;13.56;100.00
55301;BME280;58302;51.446;-2.000;2023-03-23T13:42:59;98603.06;;;13.18;100.00
55301;BME280;58302;51.446;-2.000;2023-03-23T13:48:23;98575.53;;;13.03;100.00
55301;BME280;58302;51.446;-2.000;2023-03-23T13:53:44;98580.22;;;13.02;100.00
55301;BME280;58302;51.446;-2.000;2023-03-23T13:56:21;98579.75;;;12.91;100.00
55301;BME280;58302;51.446;-2.000;2023-03-23T13:59:03;98559.13;;;12.73;100.00
55301;BME280;58302;51.446;-2.000;2023-03-23T14:01:33;98563.69;;;12.43;100.00
55301;BME280;58302;51.446;-2.000;2023-03-23T14:04:04;98553.16;;;12.24;100.00
55301;BME280;58302;51.446;-2.000;2023-03-23T14:06:35;98556.06;;;12.02;100.00
55301;BME280;58302;51.446;-2.000;2023-03-23T14:09:29;98530.44;;;11.85;100.00
55301;BME280;58302;51.446;-2.000;2023-03-23T14:11:59;98536.03;;;11.72;100.00
55301;BME280;58302;51.446;-2.000;2023-03-23T14:14:33;98519.03;;;11.57;100.00
55301;BME280;58302;51.446;-2.000;2023-03-23T14:17:13;98520.47;;;11.38;100.00
55301;BME280;58302;51.446;-2.000;2023-03-23T14:19:41;98511.31;;;11.25;100.00
55301;BME280;58302;51.446;-2.000;2023-03-23T14:22:35;98514.22;;;11.28;100.00
55301;BME280;58302;51.446;-2.000;2023-03-23T14:25:15;98510.84;;;11.31;100.00
55301;BME280;58302;51.446;-2.000;2023-03-23T14:27:42;98510.38;;;11.29;100.00
55301;BME280;58302;51.446;-2.000;2023-03-23T14:30:14;98505.06;;;11.16;100.00
55301;BME280;58302;51.446;-2.000;2023-03-23T14:32:41;98514.03;;;10.76;100.00
55301;BME280;58302;51.446;-2.000;2023-03-23T14:35:25;98506.06;;;10.40;100.00
55301;BME280;58302;51.446;-2.000;2023-03-23T14:37:53;98507.34;;;10.20;100.00